Time;durP1;ratioP1;P1;durP2;ratioP2;P2;SDS_P1;SDS_P2;PMS_P1;PMS_P2;Temp;Humidity;BMP_temperature;BMP_pressure;BME280_temperature;BME280_humidity;BME280_pressure;Samples;Min_cycle;Max_cycle;Signal;HPM_P1;HPM_P2
2022/01/15 00:01:37;;;;;;;;;;;10.80;54.70;;;;;;5081056;28;19913;-69
2022/01/15 00:04:03;;;;;;;;;;;10.80;54.60;;;;;;5080861;28;19939;-69
2022/01/15 00:06:28;;;;;;;;;;;10.80;54.70;;;;;;5080915;28;20131;-70
2022/01/15 00:08:54;;;;;;;;;;;10.80;54.80;;;;;;5080892;28;20272;-69
2022/01/15 00:11:19;;;;;;;;;;;10.80;54.80;;;;;;5080743;28;19954;-69
2022/01/15 00:13:53;;;;;;;;;;;10.80;54.80;;;;;;5080769;28;20100;-70
2022/01/15 00:16:44;;;;;;;;;;;10.80;54.70;;;;;;5080793;28;20014;-70
2022/01/15 00:19:11;;;;;;;;;;;10.80;54.80;;;;;;5080733;28;19917;-72
2022/01/15 00:21:37;;;;;;;;;;;10.80;54.90;;;;;;5080794;28;19913;-70
2022/01/15 00:24:03;;;;;;;;;;;10.80;54.70;;;;;;5080437;28;19939;-70
2022/01/15 00:26:29;;;;;;;;;;;10.80;54.80;;;;;;5080526;28;19924;-70
2022/01/15 00:28:54;;;;;;;;;;;10.80;54.70;;;;;;5080489;28;19962;-70
2022/01/15 00:31:20;;;;;;;;;;;10.80;54.60;;;;;;5080516;28;19912;-70
2022/01/15 00:33:46;;;;;;;;;;;10.80;54.60;;;;;;5080344;28;20176;-70
2022/01/15 00:36:12;;;;;;;;;;;10.80;54.60;;;;;;5080363;28;19912;-70
2022/01/15 00:38:37;;;;;;;;;;;10.80;54.60;;;;;;5080298;28;19908;-71
2022/01/15 00:41:03;;;;;;;;;;;10.80;54.70;;;;;;5080312;28;20109;-70
2022/01/15 00:43:28;;;;;;;;;;;10.80;54.70;;;;;;5080148;28;19917;-70
2022/01/15 00:45:57;;;;;;;;;;;10.80;54.80;;;;;;5080252;28;19913;-70
2022/01/15 00:48:23;;;;;;;;;;;10.70;54.80;;;;;;5080126;28;19913;-71
2022/01/15 00:50:49;;;;;;;;;;;10.70;54.70;;;;;;5080055;28;19920;-70
2022/01/15 00:53:15;;;;;;;;;;;10.80;54.80;;;;;;5080110;28;19913;-70
2022/01/15 00:55:40;;;;;;;;;;;10.80;54.80;;;;;;5080153;28;19912;-70
2022/01/15 00:58:06;;;;;;;;;;;10.80;54.70;;;;;;5080094;28;20202;-71
2022/01/15 01:00:31;;;;;;;;;;;10.80;54.80;;;;;;5080072;28;20200;-71
2022/01/15 01:02:57;;;;;;;;;;;10.80;54.90;;;;;;5079854;28;19920;-70
2022/01/15 01:05:22;;;;;;;;;;;10.80;54.70;;;;;;5078584;28;19916;-70
2022/01/15 01:07:48;;;;;;;;;;;10.80;54.60;;;;;;5079931;28;19973;-71
2022/01/15 01:13:12;;;;;;;;;;;10.80;54.60;;;;;;5079921;28;19912;-70
2022/01/15 01:21:41;;;;;;;;;;;10.80;54.70;;;;;;5079738;28;19920;-70
2022/01/15 01:23:54;;;;;;;;;;;10.70;54.90;;;;;;5079625;28;19917;-70
2022/01/15 01:26:31;;;;;;;;;;;10.70;54.90;;;;;;5079786;28;19904;-70
2022/01/15 01:31:52;;;;;;;;;;;10.80;55.00;;;;;;5080020;28;19944;-70
2022/01/15 01:34:18;;;;;;;;;;;10.80;54.80;;;;;;5079710;28;19920;-70
2022/01/15 01:36:57;;;;;;;;;;;10.80;54.70;;;;;;5083300;28;19913;-70
2022/01/15 01:39:31;;;;;;;;;;;10.80;54.70;;;;;;5083857;28;19938;-70
2022/01/15 01:42:36;;;;;;;;;;;10.80;54.60;;;;;;5083798;28;20209;-69
2022/01/15 01:45:07;;;;;;;;;;;10.80;54.70;;;;;;5083625;28;19915;-70
2022/01/15 01:47:42;;;;;;;;;;;10.80;54.60;;;;;;5083702;28;19912;-70
2022/01/15 01:50:15;;;;;;;;;;;10.90;54.60;;;;;;5083698;28;19919;-70
2022/01/15 01:52:43;;;;;;;;;;;10.90;54.60;;;;;;5083619;28;19912;-71
2022/01/15 01:55:09;;;;;;;;;;;10.80;54.30;;;;;;5083523;28;19912;-70
2022/01/15 01:57:35;;;;;;;;;;;10.70;54.30;;;;;;5083487;28;19919;-71
2022/01/15 02:00:02;;;;;;;;;;;10.60;54.60;;;;;;5083500;28;19919;-71
2022/01/15 02:02:28;;;;;;;;;;;10.60;55.10;;;;;;5083226;28;20026;-71
2022/01/15 02:04:58;;;;;;;;;;;10.60;55.00;;;;;;5083308;28;19921;-71
2022/01/15 02:07:24;;;;;;;;;;;10.70;55.10;;;;;;5083402;28;19963;-71
2022/01/15 02:09:50;;;;;;;;;;;10.70;55.00;;;;;;5083290;28;19954;-71
2022/01/15 02:12:16;;;;;;;;;;;10.70;55.50;;;;;;5083226;28;19916;-71
2022/01/15 02:14:41;;;;;;;;;;;10.70;54.80;;;;;;5083195;28;19917;-71
2022/01/15 02:17:07;;;;;;;;;;;10.80;54.80;;;;;;5083061;28;20134;-71
2022/01/15 02:19:34;;;;;;;;;;;10.80;54.80;;;;;;5083123;28;19913;-71
2022/01/15 02:24:43;;;;;;;;;;;10.80;54.50;;;;;;5082995;28;19923;-70
2022/01/15 02:27:09;;;;;;;;;;;10.80;54.50;;;;;;5081724;28;19912;-70
2022/01/15 02:29:34;;;;;;;;;;;10.90;54.50;;;;;;5082901;28;19940;-70
2022/01/15 02:32:00;;;;;;;;;;;10.80;54.30;;;;;;5082941;28;19910;-70
2022/01/15 02:34:26;;;;;;;;;;;10.80;54.80;;;;;;5083409;28;20193;-70
2022/01/15 02:36:51;;;;;;;;;;;10.60;54.40;;;;;;5082890;28;19920;-69
2022/01/15 02:39:17;;;;;;;;;;;10.60;54.60;;;;;;5082692;28;19919;-69
2022/01/15 02:41:42;;;;;;;;;;;10.60;55.00;;;;;;5083024;28;20181;-69
2022/01/15 02:44:14;;;;;;;;;;;10.70;55.00;;;;;;5082538;28;20196;-69
2022/01/15 02:49:11;;;;;;;;;;;10.70;54.80;;;;;;5082923;28;19920;-70
2022/01/15 02:51:37;;;;;;;;;;;10.70;54.70;;;;;;5082569;28;19975;-70
2022/01/15 02:54:03;;;;;;;;;;;10.70;54.50;;;;;;5082496;28;20093;-70
2022/01/15 02:56:32;;;;;;;;;;;10.60;54.60;;;;;;5082502;28;19913;-69
2022/01/15 02:58:58;;;;;;;;;;;10.60;55.00;;;;;;5082445;28;20014;-69
2022/01/15 03:01:24;;;;;;;;;;;10.60;54.80;;;;;;5082435;28;19971;-69
2022/01/15 03:03:49;;;;;;;;;;;10.70;54.90;;;;;;5082214;28;19924;-69
2022/01/15 03:06:16;;;;;;;;;;;10.80;54.90;;;;;;5082273;28;20102;-70
2022/01/15 03:08:43;;;;;;;;;;;10.70;54.60;;;;;;5082277;28;20200;-69
2022/01/15 03:11:09;;;;;;;;;;;10.70;54.30;;;;;;5080994;28;19920;-70
2022/01/15 03:13:36;;;;;;;;;;;10.60;54.60;;;;;;5082117;28;19919;-70
2022/01/15 03:16:02;;;;;;;;;;;10.50;54.80;;;;;;5082249;28;19916;-70
2022/01/15 03:18:27;;;;;;;;;;;10.50;54.90;;;;;;5082085;28;20223;-69
2022/01/15 03:20:53;;;;;;;;;;;10.70;55.30;;;;;;5082095;28;19958;-70
2022/01/15 03:23:19;;;;;;;;;;;10.80;54.90;;;;;;5081943;28;19912;-70
2022/01/15 03:25:44;;;;;;;;;;;10.80;54.40;;;;;;5082017;28;19919;-70
2022/01/15 03:28:10;;;;;;;;;;;10.70;54.60;;;;;;5082010;28;19908;-70
2022/01/15 03:30:36;;;;;;;;;;;10.70;54.80;;;;;;5081871;28;20144;-70
2022/01/15 03:33:02;;;;;;;;;;;10.60;54.70;;;;;;5081878;28;19913;-70
2022/01/15 03:35:27;;;;;;;;;;;10.60;54.70;;;;;;5081771;28;19928;-69
2022/01/15 03:37:53;;;;;;;;;;;10.60;55.10;;;;;;5081759;28;19979;-70
2022/01/15 03:40:19;;;;;;;;;;;10.60;55.00;;;;;;5081662;28;19912;-69
2022/01/15 03:42:45;;;;;;;;;;;10.60;54.80;;;;;;5080387;28;20235;-69
2022/01/15 03:45:11;;;;;;;;;;;10.70;54.50;;;;;;5081597;28;19912;-70
2022/01/15 03:47:36;;;;;;;;;;;10.60;54.50;;;;;;5081615;28;19908;-70
2022/01/15 03:50:03;;;;;;;;;;;10.50;54.70;;;;;;5081615;28;19958;-70
2022/01/15 03:52:28;;;;;;;;;;;10.50;54.90;;;;;;5081451;28;19916;-70
2022/01/15 03:54:54;;;;;;;;;;;10.50;55.00;;;;;;5081693;28;19912;-70
2022/01/15 03:57:19;;;;;;;;;;;10.50;55.00;;;;;;5081387;28;19991;-70
2022/01/15 03:59:45;;;;;;;;;;;10.50;54.90;;;;;;5080942;28;19913;-70
2022/01/15 04:02:10;;;;;;;;;;;10.50;55.40;;;;;;5081380;28;19913;-70
2022/01/15 04:04:36;;;;;;;;;;;10.60;55.30;;;;;;5081141;28;19920;-69
2022/01/15 04:07:02;;;;;;;;;;;10.80;54.90;;;;;;5081201;28;19917;-69
2022/01/15 04:09:27;;;;;;;;;;;10.80;54.50;;;;;;5081110;28;19954;-70
2022/01/15 04:11:53;;;;;;;;;;;10.90;54.30;;;;;;5081103;28;19919;-68
2022/01/15 04:14:18;;;;;;;;;;;10.80;54.40;;;;;;5081041;28;19979;-69
2022/01/15 04:16:44;;;;;;;;;;;10.70;54.30;;;;;;5080999;28;19912;-70
2022/01/15 04:19:09;;;;;;;;;;;10.80;54.40;;;;;;5080969;28;19990;-70
2022/01/15 04:21:35;;;;;;;;;;;10.70;54.30;;;;;;5080953;28;20330;-70
2022/01/15 04:24:01;;;;;;;;;;;10.60;54.50;;;;;;5080764;28;19921;-69
2022/01/15 04:26:27;;;;;;;;;;;10.50;54.70;;;;;;5080663;28;19987;-69
2022/01/15 04:28:54;;;;;;;;;;;10.50;54.90;;;;;;5080755;28;19912;-70
2022/01/15 04:31:20;;;;;;;;;;;10.40;54.90;;;;;;5080658;28;19912;-70
2022/01/15 04:33:46;;;;;;;;;;;10.40;54.90;;;;;;5080695;28;19950;-70
2022/01/15 04:36:12;;;;;;;;;;;10.50;55.00;;;;;;5079354;28;20418;-70
2022/01/15 04:38:38;;;;;;;;;;;10.50;55.00;;;;;;5080587;28;20127;-69
2022/01/15 04:41:07;;;;;;;;;;;10.40;54.90;;;;;;5079239;28;19970;-70
2022/01/15 04:43:33;;;;;;;;;;;10.50;55.20;;;;;;5080349;28;20333;-69
2022/01/15 04:45:59;;;;;;;;;;;10.70;55.20;;;;;;5080470;28;19917;-69
2022/01/15 04:48:25;;;;;;;;;;;10.80;54.80;;;;;;5080412;28;20344;-70
2022/01/15 04:50:50;;;;;;;;;;;10.80;54.60;;;;;;5080378;28;19905;-69
2022/01/15 04:53:16;;;;;;;;;;;10.80;54.40;;;;;;5080332;28;19920;-70
2022/01/15 04:55:41;;;;;;;;;;;10.70;54.20;;;;;;5080214;28;20224;-70
2022/01/15 04:58:07;;;;;;;;;;;10.60;54.30;;;;;;5080306;28;19904;-71
2022/01/15 05:00:33;;;;;;;;;;;10.50;54.70;;;;;;5080474;28;19917;-69
2022/01/15 05:02:59;;;;;;;;;;;10.40;55.00;;;;;;5079883;28;19959;-70
2022/01/15 05:05:25;;;;;;;;;;;10.40;55.10;;;;;;5078748;28;19994;-70
2022/01/15 05:07:54;;;;;;;;;;;10.40;55.20;;;;;;5080195;28;20207;-70
2022/01/15 05:10:23;;;;;;;;;;;10.40;55.20;;;;;;5079405;28;19919;-69
2022/01/15 05:12:49;;;;;;;;;;;10.40;55.00;;;;;;5078864;28;19920;-70
2022/01/15 05:15:16;;;;;;;;;;;10.40;54.90;;;;;;5080098;28;20006;-70
2022/01/15 05:17:42;;;;;;;;;;;10.40;55.00;;;;;;5080090;28;20423;-70
2022/01/15 05:20:09;;;;;;;;;;;10.40;55.00;;;;;;5080083;28;19912;-70
2022/01/15 05:22:34;;;;;;;;;;;10.40;55.00;;;;;;5080073;28;19943;-70
2022/01/15 05:25:00;;;;;;;;;;;10.50;55.30;;;;;;5079982;28;20223;-70
2022/01/15 05:27:26;;;;;;;;;;;10.50;55.10;;;;;;5079853;28;19919;-68
2022/01/15 05:29:52;;;;;;;;;;;10.60;54.90;;;;;;5079893;28;19954;-69
2022/01/15 05:32:19;;;;;;;;;;;10.50;54.60;;;;;;5079855;28;19912;-70
2022/01/15 05:34:47;;;;;;;;;;;10.50;54.80;;;;;;5079860;28;19913;-70
2022/01/15 05:37:13;;;;;;;;;;;10.40;55.00;;;;;;5079854;28;19919;-70
2022/01/15 05:39:39;;;;;;;;;;;10.40;55.20;;;;;;5079827;28;19913;-70
2022/01/15 05:42:04;;;;;;;;;;;10.30;55.30;;;;;;5079748;28;19948;-70
2022/01/15 05:44:30;;;;;;;;;;;10.30;55.30;;;;;;5079716;28;20090;-70
2022/01/15 05:46:56;;;;;;;;;;;10.30;55.20;;;;;;5079688;28;19912;-70
2022/01/15 05:49:21;;;;;;;;;;;10.30;55.20;;;;;;5078458;28;19920;-70
2022/01/15 05:51:47;;;;;;;;;;;10.40;55.70;;;;;;5079650;28;19912;-69
2022/01/15 05:54:13;;;;;;;;;;;10.40;55.10;;;;;;5079643;28;19935;-69
2022/01/15 05:56:39;;;;;;;;;;;10.40;55.20;;;;;;5079621;28;19916;-70
2022/01/15 05:59:06;;;;;;;;;;;10.30;55.20;;;;;;5079616;28;19912;-70
2022/01/15 06:01:32;;;;;;;;;;;10.30;55.20;;;;;;5079528;28;19979;-71
2022/01/15 06:03:57;;;;;;;;;;;10.30;55.20;;;;;;5079284;28;20205;-71
2022/01/15 06:06:23;;;;;;;;;;;10.30;55.10;;;;;;5079565;28;19974;-70
2022/01/15 06:08:49;;;;;;;;;;;10.30;55.20;;;;;;5079504;28;19913;-70
2022/01/15 06:11:17;;;;;;;;;;;10.30;55.30;;;;;;5079434;28;19954;-70
2022/01/15 06:13:47;;;;;;;;;;;10.30;55.30;;;;;;5079462;28;19920;-71
2022/01/15 06:16:13;;;;;;;;;;;10.30;55.30;;;;;;5079445;28;19912;-70
2022/01/15 06:18:38;;;;;;;;;;;10.30;55.20;;;;;;5079453;28;19912;-70
2022/01/15 06:21:04;;;;;;;;;;;10.30;55.20;;;;;;5079762;28;20022;-71
2022/01/15 06:23:30;;;;;;;;;;;10.30;55.30;;;;;;5082952;28;19920;-70
2022/01/15 06:25:55;;;;;;;;;;;10.30;55.30;;;;;;5083035;28;19969;-70
2022/01/15 06:28:21;;;;;;;;;;;10.30;55.20;;;;;;5082984;28;19919;-70
2022/01/15 06:30:47;;;;;;;;;;;10.30;55.20;;;;;;5082832;28;19912;-70
2022/01/15 06:33:13;;;;;;;;;;;10.40;55.20;;;;;;5082884;28;20159;-70
2022/01/15 06:35:38;;;;;;;;;;;10.40;55.20;;;;;;5082795;28;19912;-70
2022/01/15 06:38:04;;;;;;;;;;;10.30;55.10;;;;;;5082667;28;19950;-70
2022/01/15 06:40:31;;;;;;;;;;;10.30;55.10;;;;;;5081384;28;19927;-69
2022/01/15 06:42:57;;;;;;;;;;;10.30;55.30;;;;;;5082628;28;19912;-70
2022/01/15 06:45:23;;;;;;;;;;;10.20;55.30;;;;;;5082573;28;19916;-70
2022/01/15 06:47:48;;;;;;;;;;;10.20;55.40;;;;;;5082506;28;20111;-70
2022/01/15 06:50:14;;;;;;;;;;;10.20;55.40;;;;;;5082435;28;20167;-69
2022/01/15 06:52:39;;;;;;;;;;;10.30;55.40;;;;;;5082408;28;19920;-70
2022/01/15 06:55:06;;;;;;;;;;;10.30;55.30;;;;;;5082360;28;19912;-70
2022/01/15 06:57:32;;;;;;;;;;;10.30;55.30;;;;;;5082351;28;20151;-70
2022/01/15 06:59:57;;;;;;;;;;;10.30;55.30;;;;;;5082311;28;20436;-70
2022/01/15 07:02:23;;;;;;;;;;;10.30;55.30;;;;;;5082321;28;19912;-69
2022/01/15 07:04:49;;;;;;;;;;;10.30;55.40;;;;;;5082057;28;20235;-69
2022/01/15 07:07:14;;;;;;;;;;;10.30;55.20;;;;;;5082206;28;19928;-69
2022/01/15 07:09:40;;;;;;;;;;;10.30;55.20;;;;;;5082153;28;19912;-70
2022/01/15 07:12:06;;;;;;;;;;;10.30;55.10;;;;;;5082074;28;19912;-70
2022/01/15 07:14:31;;;;;;;;;;;10.30;55.20;;;;;;5082024;28;19981;-70
2022/01/15 07:16:57;;;;;;;;;;;10.30;55.30;;;;;;5081953;28;19912;-70
2022/01/15 07:19:22;;;;;;;;;;;10.20;55.40;;;;;;5082033;28;19947;-70
2022/01/15 07:21:48;;;;;;;;;;;10.20;55.40;;;;;;5081882;28;20419;-69
2022/01/15 07:24:14;;;;;;;;;;;10.20;55.40;;;;;;5081798;28;19959;-68
2022/01/15 07:26:40;;;;;;;;;;;10.30;55.50;;;;;;5081859;28;19976;-70
2022/01/15 07:29:13;;;;;;;;;;;10.30;55.30;;;;;;5081779;28;19920;-69
2022/01/15 07:31:38;;;;;;;;;;;10.30;55.20;;;;;;5081718;28;19919;-69
2022/01/15 07:34:04;;;;;;;;;;;10.40;55.10;;;;;;5080924;28;19912;-70
2022/01/15 07:36:30;;;;;;;;;;;10.40;55.10;;;;;;5080339;28;19917;-71
2022/01/15 07:38:55;;;;;;;;;;;10.40;55.00;;;;;;5081525;28;19919;-71
2022/01/15 07:41:21;;;;;;;;;;;10.40;55.10;;;;;;5081518;28;20108;-70
2022/01/15 07:43:47;;;;;;;;;;;10.40;55.00;;;;;;5081310;28;20224;-71
2022/01/15 07:46:13;;;;;;;;;;;10.40;55.10;;;;;;5081476;28;19919;-70
2022/01/15 07:48:38;;;;;;;;;;;10.40;55.00;;;;;;5081309;28;19912;-70
2022/01/15 07:51:04;;;;;;;;;;;10.40;55.10;;;;;;5081318;28;20200;-70
2022/01/15 07:53:29;;;;;;;;;;;10.40;55.10;;;;;;5081288;28;20118;-69
2022/01/15 07:55:55;;;;;;;;;;;10.30;55.10;;;;;;5081281;28;19904;-69
2022/01/15 07:58:21;;;;;;;;;;;10.30;55.20;;;;;;5081148;28;19940;-70
2022/01/15 08:00:46;;;;;;;;;;;10.40;55.20;;;;;;5081138;28;19975;-70
2022/01/15 08:03:12;;;;;;;;;;;10.40;55.20;;;;;;5080831;28;19924;-70
2022/01/15 08:05:38;;;;;;;;;;;10.40;55.00;;;;;;5080963;28;19956;-70
2022/01/15 08:08:03;;;;;;;;;;;10.50;55.10;;;;;;5080975;28;19919;-70
2022/01/15 08:10:29;;;;;;;;;;;10.70;55.00;;;;;;5080908;28;19912;-71
2022/01/15 08:12:55;;;;;;;;;;;10.70;54.70;;;;;;5080837;28;19912;-70
2022/01/15 08:15:21;;;;;;;;;;;10.80;54.70;;;;;;5080795;28;19915;-70
2022/01/15 08:17:46;;;;;;;;;;;10.80;54.50;;;;;;5080687;28;19950;-70
2022/01/15 08:20:12;;;;;;;;;;;10.80;54.40;;;;;;5080711;28;19912;-70
2022/01/15 08:22:42;;;;;;;;;;;10.90;54.30;;;;;;5080610;28;19913;-70
2022/01/15 08:25:10;;;;;;;;;;;10.80;54.20;;;;;;5080791;28;19916;-71
2022/01/15 08:27:35;;;;;;;;;;;10.90;54.10;;;;;;5080469;28;19920;-70
2022/01/15 08:30:01;;;;;;;;;;;10.90;54.10;;;;;;5080576;28;19999;-70
2022/01/15 08:32:27;;;;;;;;;;;10.90;54.10;;;;;;5080494;28;19913;-71
2022/01/15 08:34:53;;;;;;;;;;;10.80;54.10;;;;;;5080480;28;19912;-70
2022/01/15 08:37:18;;;;;;;;;;;10.80;54.30;;;;;;5080390;28;19919;-71
2022/01/15 08:39:44;;;;;;;;;;;10.80;54.50;;;;;;5080347;28;20197;-70
2022/01/15 08:42:10;;;;;;;;;;;10.70;54.50;;;;;;5080331;28;19919;-70
2022/01/15 08:44:40;;;;;;;;;;;10.70;54.60;;;;;;5080131;28;19915;-70
2022/01/15 08:47:05;;;;;;;;;;;10.80;55.30;;;;;;5080183;28;19915;-70
2022/01/15 08:49:31;;;;;;;;;;;10.80;54.70;;;;;;5080225;28;19934;-71
2022/01/15 08:51:57;;;;;;;;;;;10.70;54.60;;;;;;5080161;28;20204;-71
2022/01/15 08:54:22;;;;;;;;;;;10.70;54.60;;;;;;5080182;28;19912;-71
2022/01/15 08:56:48;;;;;;;;;;;10.80;54.70;;;;;;5080027;28;20135;-70
2022/01/15 08:59:13;;;;;;;;;;;10.80;54.70;;;;;;5080092;28;19919;-71
2022/01/15 09:01:39;;;;;;;;;;;10.80;54.60;;;;;;5079993;28;20437;-70
2022/01/15 09:04:04;;;;;;;;;;;10.90;54.50;;;;;;5079714;28;19929;-71
2022/01/15 09:06:30;;;;;;;;;;;10.90;54.30;;;;;;5079989;28;19905;-71
2022/01/15 09:08:56;;;;;;;;;;;10.90;54.20;;;;;;5079912;28;19912;-71
2022/01/15 09:11:21;;;;;;;;;;;11.00;54.20;;;;;;5079883;28;20112;-70
2022/01/15 09:13:48;;;;;;;;;;;11.00;54.20;;;;;;5079877;28;19943;-70
2022/01/15 09:16:14;;;;;;;;;;;11.00;54.20;;;;;;5079872;28;19923;-70
2022/01/15 09:18:39;;;;;;;;;;;10.90;54.30;;;;;;5079837;28;19912;-70
2022/01/15 09:21:05;;;;;;;;;;;10.90;54.50;;;;;;5079759;28;19919;-70
2022/01/15 09:23:31;;;;;;;;;;;10.80;54.70;;;;;;5079744;28;19912;-70
2022/01/15 09:25:58;;;;;;;;;;;10.80;54.80;;;;;;5079673;28;19920;-70
2022/01/15 09:31:09;;;;;;;;;;;10.80;54.80;;;;;;5079661;28;19918;-70
2022/01/15 09:33:35;;;;;;;;;;;10.80;54.70;;;;;;5079670;28;19943;-70
2022/01/15 09:36:00;;;;;;;;;;;10.90;54.80;;;;;;5079625;28;19912;-69
2022/01/15 09:38:26;;;;;;;;;;;10.90;54.70;;;;;;5079624;28;19983;-70
2022/01/15 09:40:51;;;;;;;;;;;10.90;54.80;;;;;;5079675;28;19932;-69
2022/01/15 09:43:17;;;;;;;;;;;10.90;54.80;;;;;;5079437;28;20271;-70
2022/01/15 09:45:44;;;;;;;;;;;10.90;54.90;;;;;;5079542;28;19950;-70
2022/01/15 09:48:09;;;;;;;;;;;10.90;55.40;;;;;;5079460;28;19913;-70
2022/01/15 09:50:36;;;;;;;;;;;10.90;54.80;;;;;;5079453;28;20128;-70
2022/01/15 09:53:02;;;;;;;;;;;10.90;54.80;;;;;;5079503;28;20177;-69
2022/01/15 09:55:28;;;;;;;;;;;10.90;54.70;;;;;;5079350;28;19913;-70
2022/01/15 09:57:54;;;;;;;;;;;10.90;54.80;;;;;;5082927;28;20108;-70
2022/01/15 10:00:20;;;;;;;;;;;11.00;54.90;;;;;;5083378;28;20176;-70
2022/01/15 10:02:47;;;;;;;;;;;11.00;54.70;;;;;;5083107;28;19913;-71
2022/01/15 10:05:13;;;;;;;;;;;11.00;54.80;;;;;;5083232;28;20168;-70
2022/01/15 10:07:53;;;;;;;;;;;11.00;54.80;;;;;;5083121;28;19912;-70
2022/01/15 10:10:20;;;;;;;;;;;11.00;54.80;;;;;;5083167;28;19920;-70
2022/01/15 10:12:46;;;;;;;;;;;11.00;54.70;;;;;;5083058;28;19912;-70
2022/01/15 10:15:12;;;;;;;;;;;11.00;54.70;;;;;;5083057;28;19919;-70
2022/01/15 10:17:39;;;;;;;;;;;11.00;54.70;;;;;;5082890;28;19912;-70
2022/01/15 10:20:06;;;;;;;;;;;11.00;54.70;;;;;;5082932;28;19912;-70
2022/01/15 10:22:32;;;;;;;;;;;11.10;54.80;;;;;;5082899;28;19912;-70
2022/01/15 10:24:59;;;;;;;;;;;11.00;54.80;;;;;;5082701;28;20204;-71
2022/01/15 10:27:29;;;;;;;;;;;11.10;54.80;;;;;;5082769;28;20204;-70
2022/01/15 10:29:58;;;;;;;;;;;11.10;54.90;;;;;;5082804;28;19980;-71
2022/01/15 10:32:28;;;;;;;;;;;11.10;54.80;;;;;;5082700;28;19953;-71
2022/01/15 10:34:54;;;;;;;;;;;11.10;54.80;;;;;;5082687;28;19912;-70
2022/01/15 10:37:24;;;;;;;;;;;11.10;54.80;;;;;;5082533;28;19912;-70
2022/01/15 10:39:58;;;;;;;;;;;11.10;54.80;;;;;;5082565;28;19917;-70
2022/01/15 10:42:25;;;;;;;;;;;11.10;54.90;;;;;;5082556;28;19916;-70
2022/01/15 10:44:54;;;;;;;;;;;11.10;54.90;;;;;;5081119;28;20222;-70
2022/01/15 10:47:22;;;;;;;;;;;11.10;54.90;;;;;;5082468;28;20208;-70
2022/01/15 10:49:47;;;;;;;;;;;11.10;54.80;;;;;;5082361;28;19934;-70
2022/01/15 10:52:17;;;;;;;;;;;11.10;54.80;;;;;;5082365;28;19991;-70
2022/01/15 10:54:53;;;;;;;;;;;11.20;54.90;;;;;;5082358;28;19913;-70
2022/01/15 10:57:20;;;;;;;;;;;11.20;54.90;;;;;;5082277;28;19958;-70
2022/01/15 10:59:56;;;;;;;;;;;11.20;55.00;;;;;;5082191;28;20135;-69
2022/01/15 11:02:22;;;;;;;;;;;11.20;55.60;;;;;;5082203;28;19962;-70
2022/01/15 11:04:47;;;;;;;;;;;11.20;55.00;;;;;;5081982;28;20221;-69
2022/01/15 11:07:14;;;;;;;;;;;11.20;54.90;;;;;;5081822;28;19920;-69
2022/01/15 11:09:44;;;;;;;;;;;11.20;54.80;;;;;;5081331;28;20208;-68
2022/01/15 11:12:10;;;;;;;;;;;11.20;54.90;;;;;;5082058;28;19932;-69
2022/01/15 11:14:35;;;;;;;;;;;11.20;54.80;;;;;;5081902;28;19919;-70
2022/01/15 11:17:01;;;;;;;;;;;11.20;55.40;;;;;;5081941;28;19917;-71
2022/01/15 11:19:29;;;;;;;;;;;11.30;54.90;;;;;;5081837;28;19912;-72
2022/01/15 11:21:56;;;;;;;;;;;11.30;54.90;;;;;;5081820;28;19939;-70
2022/01/15 11:24:22;;;;;;;;;;;11.30;54.80;;;;;;5081720;28;19908;-70
2022/01/15 11:26:51;;;;;;;;;;;11.30;54.90;;;;;;5080419;28;19920;-70
2022/01/15 11:29:18;;;;;;;;;;;11.30;54.90;;;;;;5081692;28;19918;-70
2022/01/15 11:31:45;;;;;;;;;;;11.30;55.00;;;;;;5081590;28;19912;-71
2022/01/15 11:34:12;;;;;;;;;;;11.30;55.00;;;;;;5081611;28;19917;-70
2022/01/15 11:36:39;;;;;;;;;;;11.30;55.10;;;;;;5081511;28;19913;-70
2022/01/15 11:39:06;;;;;;;;;;;11.30;55.10;;;;;;5080189;28;19912;-70
2022/01/15 11:41:31;;;;;;;;;;;11.30;55.10;;;;;;5081437;28;19913;-71
2022/01/15 11:44:04;;;;;;;;;;;11.30;55.00;;;;;;5081310;28;19924;-70
2022/01/15 11:46:33;;;;;;;;;;;11.40;55.00;;;;;;5081356;28;19944;-70
2022/01/15 11:49:17;;;;;;;;;;;11.40;54.90;;;;;;5081268;28;19912;-71
2022/01/15 11:51:43;;;;;;;;;;;11.40;55.00;;;;;;5081249;28;19912;-70
2022/01/15 11:54:11;;;;;;;;;;;11.30;55.00;;;;;;5081103;28;19920;-70
2022/01/15 11:56:38;;;;;;;;;;;11.40;54.90;;;;;;5081082;28;19916;-70
2022/01/15 11:59:22;;;;;;;;;;;11.40;55.00;;;;;;5081054;28;19958;-70
2022/01/15 12:01:47;;;;;;;;;;;11.40;55.00;;;;;;5081078;28;20228;-71
2022/01/15 12:04:23;;;;;;;;;;;11.40;55.00;;;;;;5079487;28;19924;-70
2022/01/15 12:07:04;;;;;;;;;;;11.40;55.00;;;;;;5080899;28;20120;-70
2022/01/15 12:09:35;;;;;;;;;;;11.30;55.10;;;;;;5080841;28;19912;-69
2022/01/15 12:12:02;;;;;;;;;;;11.30;55.10;;;;;;5080830;28;20067;-69
2022/01/15 12:14:46;;;;;;;;;;;11.30;55.20;;;;;;5079454;28;20132;-70
2022/01/15 12:17:25;;;;;;;;;;;11.30;55.20;;;;;;5080730;28;19912;-71
2022/01/15 12:19:51;;;;;;;;;;;11.30;55.20;;;;;;5080342;28;20279;-69
2022/01/15 12:22:35;;;;;;;;;;;11.30;55.10;;;;;;5080604;28;19904;-70
2022/01/15 12:25:04;;;;;;;;;;;11.30;55.20;;;;;;5080492;28;19916;-69
2022/01/15 12:27:30;;;;;;;;;;;11.40;55.20;;;;;;5080534;28;19999;-70
2022/01/15 12:29:57;;;;;;;;;;;11.30;55.20;;;;;;5080455;28;19939;-70
2022/01/15 12:32:30;;;;;;;;;;;11.40;55.20;;;;;;5079174;28;19912;-69
2022/01/15 12:34:56;;;;;;;;;;;11.40;55.10;;;;;;5080303;28;19932;-70
2022/01/15 12:37:22;;;;;;;;;;;11.40;55.00;;;;;;5080362;28;19912;-69
2022/01/15 12:39:49;;;;;;;;;;;11.40;55.00;;;;;;5078873;28;19928;-70
2022/01/15 12:42:17;;;;;;;;;;;11.40;55.00;;;;;;5080217;28;20309;-70
2022/01/15 12:44:51;;;;;;;;;;;11.40;55.10;;;;;;5080137;28;20026;-70
2022/01/15 12:47:17;;;;;;;;;;;11.40;55.20;;;;;;5080237;28;19912;-70
2022/01/15 12:49:47;;;;;;;;;;;11.30;55.20;;;;;;5078872;28;19936;-70
2022/01/15 12:52:15;;;;;;;;;;;11.30;55.10;;;;;;5080078;28;19912;-70
2022/01/15 12:54:41;;;;;;;;;;;11.40;55.20;;;;;;5080019;28;19912;-70
2022/01/15 12:57:07;;;;;;;;;;;11.30;55.20;;;;;;5079926;28;19913;-70
2022/01/15 12:59:38;;;;;;;;;;;11.30;55.10;;;;;;5078818;28;19963;-70
2022/01/15 13:02:03;;;;;;;;;;;11.40;55.20;;;;;;5079978;28;19913;-70
2022/01/15 13:04:29;;;;;;;;;;;11.40;55.20;;;;;;5079499;28;19924;-70
2022/01/15 13:07:02;;;;;;;;;;;11.40;55.10;;;;;;5079902;28;19981;-70
2022/01/15 13:09:44;;;;;;;;;;;11.40;55.10;;;;;;5079847;28;20235;-70
2022/01/15 13:12:11;;;;;;;;;;;11.40;55.10;;;;;;5080099;28;19950;-70
2022/01/15 13:14:40;;;;;;;;;;;11.50;55.10;;;;;;5079857;28;19904;-70
2022/01/15 13:17:19;;;;;;;;;;;11.50;55.00;;;;;;5079348;28;19979;-70
2022/01/15 13:19:45;;;;;;;;;;;11.50;55.00;;;;;;5079782;28;20219;-70
2022/01/15 13:22:11;;;;;;;;;;;11.40;55.10;;;;;;5079681;28;19916;-70
2022/01/15 13:24:36;;;;;;;;;;;11.40;55.20;;;;;;5079617;28;19908;-71
2022/01/15 13:27:03;;;;;;;;;;;11.40;55.10;;;;;;5079657;28;19978;-70
2022/01/15 13:29:42;;;;;;;;;;;11.40;55.10;;;;;;5079671;28;20227;-71
2022/01/15 13:32:08;;;;;;;;;;;11.50;55.20;;;;;;5078865;28;19918;-70
2022/01/15 13:34:36;;;;;;;;;;;11.50;55.20;;;;;;5079599;28;19948;-70
2022/01/15 13:37:18;;;;;;;;;;;11.50;55.10;;;;;;5079558;28;20117;-69
2022/01/15 13:39:44;;;;;;;;;;;11.50;55.10;;;;;;5078224;28;20208;-69
2022/01/15 13:42:22;;;;;;;;;;;11.50;55.20;;;;;;5079477;28;19912;-70
2022/01/15 13:44:48;;;;;;;;;;;11.50;55.10;;;;;;5079343;28;19936;-70
2022/01/15 13:47:14;;;;;;;;;;;11.50;55.00;;;;;;5079443;28;19916;-70
2022/01/15 13:55:13;;;;;;;;;;;11.60;54.80;;;;;;5079375;28;19935;-70
2022/01/15 13:57:40;;;;;;;;;;;11.60;54.90;;;;;;5079412;28;20090;-70
2022/01/15 14:00:09;;;;;;;;;;;11.60;54.80;;;;;;5078043;28;20090;-71
2022/01/15 14:02:35;;;;;;;;;;;11.60;55.00;;;;;;5079306;28;20211;-70
2022/01/15 14:05:13;;;;;;;;;;;11.60;55.00;;;;;;5079106;28;19928;-69
2022/01/15 14:07:39;;;;;;;;;;;11.60;55.00;;;;;;5077951;28;20027;-70
2022/01/15 14:10:14;;;;;;;;;;;11.60;55.10;;;;;;5079222;28;19912;-70
2022/01/15 14:12:40;;;;;;;;;;;11.60;55.10;;;;;;5079349;28;19904;-69
2022/01/15 14:15:14;;;;;;;;;;;11.60;55.10;;;;;;5077912;28;19948;-70
2022/01/15 14:17:43;;;;;;;;;;;11.60;55.10;;;;;;5079188;28;19979;-70
2022/01/15 14:22:45;;;;;;;;;;;11.70;55.20;;;;;;5079358;28;19919;-70
2022/01/15 14:25:19;;;;;;;;;;;11.70;55.10;;;;;;5079085;28;20288;-70
2022/01/15 14:28:05;;;;;;;;;;;11.70;54.90;;;;;;5077797;28;19983;-69
2022/01/15 14:30:32;;;;;;;;;;;11.70;55.10;;;;;;5077705;28;19920;-71
2022/01/15 14:32:58;;;;;;;;;;;11.70;55.10;;;;;;5079049;28;20147;-70
2022/01/15 14:35:25;;;;;;;;;;;11.70;55.10;;;;;;5078990;28;19970;-70
2022/01/15 14:37:51;;;;;;;;;;;11.70;55.20;;;;;;5079010;28;19961;-70
2022/01/15 14:40:17;;;;;;;;;;;11.70;55.20;;;;;;5079019;28;20406;-70
2022/01/15 14:42:43;;;;;;;;;;;11.70;55.00;;;;;;5080437;28;19918;-70
2022/01/15 14:45:09;;;;;;;;;;;11.70;55.10;;;;;;5082505;28;20003;-70